Cottonwood, Idaho
Current Conditions -  °F | °C
As of 11:55 AM on Friday 19 Dec 2014 (Local Time) from KGIC Reporting Station
Overcast Overcast  
Wind Chill: 31°   Ceiling: 7500
Heat Index: 42°   Visibility: 10mi
Dew Point: 34°   Wind: 26mph
Humidity: 73%   Direction: 200°SSW
Pressure: 29.93"   Gusts: 35mph
Location:  46.05°N, 116.35°W
Report Text: KGIC 191955Z AUTO 20023G30KT 10SM SCT060 OVC075 05/01 A2993 RMK AO1 T00540009
Loading
Personal Weather Stations






























Interactive Weather Map New forecast layout! Learn more

10-Day Weather Forecast

Advertisements
Track Severe Weather on mobile